sensor_id;sensor_type;location;lat;lon;timestamp;pressure;altitude;pressure_sealevel;temperature;humidity
26859;BME280;14429;48.346;16.338;2023-06-10T00:02:10;99363.09;;;22.47;58.19
26859;BME280;14429;48.346;16.338;2023-06-10T00:04:36;99364.69;;;21.91;59.42
26859;BME280;14429;48.346;16.338;2023-06-10T00:07:02;99377.59;;;21.23;62.05
26859;BME280;14429;48.346;16.338;2023-06-10T00:09:29;99375.56;;;21.69;60.82
26859;BME280;14429;48.346;16.338;2023-06-10T00:11:55;99366.63;;;22.05;60.17
26859;BME280;14429;48.346;16.338;2023-06-10T00:14:20;99373.84;;;22.12;59.87
26859;BME280;14429;48.346;16.338;2023-06-10T00:16:46;99361.78;;;22.29;58.62
26859;BME280;14429;48.346;16.338;2023-06-10T00:19:11;99367.78;;;22.02;58.73
26859;BME280;14429;48.346;16.338;2023-06-10T00:21:37;99368.97;;;22.22;59.13
26859;BME280;14429;48.346;16.338;2023-06-10T00:24:03;99362.59;;;22.15;58.56
26859;BME280;14429;48.346;16.338;2023-06-10T00:26:30;99373.31;;;21.94;59.07
26859;BME280;14429;48.346;16.338;2023-06-10T00:28:55;99370.28;;;22.26;58.92
26859;BME280;14429;48.346;16.338;2023-06-10T00:31:20;99376.31;;;22.36;58.52
26859;BME280;14429;48.346;16.338;2023-06-10T00:33:46;99372.19;;;22.40;58.75
26859;BME280;14429;48.346;16.338;2023-06-10T00:36:11;99376.47;;;22.48;58.50
26859;BME280;14429;48.346;16.338;2023-06-10T00:38:37;99385.69;;;22.47;57.95
26859;BME280;14429;48.346;16.338;2023-06-10T00:41:02;99386.88;;;22.45;58.15
26859;BME280;14429;48.346;16.338;2023-06-10T00:43:29;99386.81;;;22.39;58.59
26859;BME280;14429;48.346;16.338;2023-06-10T00:45:54;99385.22;;;21.93;59.55
26859;BME280;14429;48.346;16.338;2023-06-10T00:48:20;99387.03;;;21.79;61.05
26859;BME280;14429;48.346;16.338;2023-06-10T00:50:45;99386.59;;;22.26;59.20
26859;BME280;14429;48.346;16.338;2023-06-10T00:53:11;99388.69;;;22.02;59.48
26859;BME280;14429;48.346;16.338;2023-06-10T00:55:37;99383.50;;;21.56;61.15
26859;BME280;14429;48.346;16.338;2023-06-10T00:58:03;99390.81;;;21.18;63.83
26859;BME280;14429;48.346;16.338;2023-06-10T01:00:30;99388.09;;;21.70;61.36
26859;BME280;14429;48.346;16.338;2023-06-10T01:02:55;99381.34;;;21.66;60.64
26859;BME280;14429;48.346;16.338;2023-06-10T01:05:21;99386.53;;;21.97;59.82
26859;BME280;14429;48.346;16.338;2023-06-10T01:07:51;99384.03;;;22.10;59.28
26859;BME280;14429;48.346;16.338;2023-06-10T01:10:20;99379.19;;;21.84;60.27
26859;BME280;14429;48.346;16.338;2023-06-10T01:12:54;99382.94;;;22.19;59.22
26859;BME280;14429;48.346;16.338;2023-06-10T01:15:20;99377.59;;;22.25;58.86
26859;BME280;14429;48.346;16.338;2023-06-10T01:17:58;99390.03;;;22.06;59.19
26859;BME280;14429;48.346;16.338;2023-06-10T01:20:24;99383.31;;;22.16;58.91
26859;BME280;14429;48.346;16.338;2023-06-10T01:22:51;99384.91;;;22.25;58.61
26859;BME280;14429;48.346;16.338;2023-06-10T01:25:16;99388.31;;;22.27;58.82
26859;BME280;14429;48.346;16.338;2023-06-10T01:27:42;99385.03;;;22.31;58.45
26859;BME280;14429;48.346;16.338;2023-06-10T01:30:14;99387.34;;;22.34;58.59
26859;BME280;14429;48.346;16.338;2023-06-10T01:32:44;99386.69;;;22.32;58.15
26859;BME280;14429;48.346;16.338;2023-06-10T01:35:10;99385.88;;;22.32;58.38
26859;BME280;14429;48.346;16.338;2023-06-10T01:37:38;99379.47;;;22.25;58.80
26859;BME280;14429;48.346;16.338;2023-06-10T01:40:06;99389.97;;;22.28;58.46
26859;BME280;14429;48.346;16.338;2023-06-10T01:42:32;99384.72;;;22.26;58.27
26859;BME280;14429;48.346;16.338;2023-06-10T01:44:58;99386.41;;;22.13;59.24
26859;BME280;14429;48.346;16.338;2023-06-10T01:47:24;99387.06;;;22.29;58.27
26859;BME280;14429;48.346;16.338;2023-06-10T01:49:49;99385.94;;;22.24;58.37
26859;BME280;14429;48.346;16.338;2023-06-10T01:52:14;99386.31;;;22.21;58.48
26859;BME280;14429;48.346;16.338;2023-06-10T01:54:40;99389.31;;;22.26;58.30
26859;BME280;14429;48.346;16.338;2023-06-10T01:57:07;99388.31;;;22.27;58.64
26859;BME280;14429;48.346;16.338;2023-06-10T01:59:32;99389.75;;;22.15;58.68
26859;BME280;14429;48.346;16.338;2023-06-10T02:01:58;99389.41;;;22.18;58.76
26859;BME280;14429;48.346;16.338;2023-06-10T02:04:23;99398.22;;;22.20;58.71
26859;BME280;14429;48.346;16.338;2023-06-10T02:06:49;99398.31;;;22.26;58.38
26859;BME280;14429;48.346;16.338;2023-06-10T02:09:14;99392.03;;;22.26;58.24
26859;BME280;14429;48.346;16.338;2023-06-10T02:11:39;99394.75;;;22.26;58.20
26859;BME280;14429;48.346;16.338;2023-06-10T02:14:06;99397.47;;;22.26;58.21
26859;BME280;14429;48.346;16.338;2023-06-10T02:16:32;99397.53;;;22.18;58.65
26859;BME280;14429;48.346;16.338;2023-06-10T02:18:57;99404.97;;;22.24;58.55
26859;BME280;14429;48.346;16.338;2023-06-10T02:21:23;99395.09;;;22.23;58.39
26859;BME280;14429;48.346;16.338;2023-06-10T02:23:48;99389.50;;;22.24;58.17
26859;BME280;14429;48.346;16.338;2023-06-10T02:26:13;99393.22;;;22.09;58.91
26859;BME280;14429;48.346;16.338;2023-06-10T02:28:42;99384.72;;;22.12;58.67
26859;BME280;14429;48.346;16.338;2023-06-10T02:31:09;99397.38;;;22.19;58.39
26859;BME280;14429;48.346;16.338;2023-06-10T02:33:34;99391.06;;;22.19;58.54
26859;BME280;14429;48.346;16.338;2023-06-10T02:35:59;99387.72;;;22.17;58.31
26859;BME280;14429;48.346;16.338;2023-06-10T02:38:25;99387.72;;;22.17;58.43
26859;BME280;14429;48.346;16.338;2023-06-10T02:40:50;99393.16;;;22.17;58.71
26859;BME280;14429;48.346;16.338;2023-06-10T02:43:16;99392.47;;;22.15;58.60
26859;BME280;14429;48.346;16.338;2023-06-10T02:45:41;99390.16;;;22.12;58.87
26859;BME280;14429;48.346;16.338;2023-06-10T02:48:08;99386.47;;;22.05;58.98
26859;BME280;14429;48.346;16.338;2023-06-10T02:50:33;99393.50;;;22.14;58.77
26859;BME280;14429;48.346;16.338;2023-06-10T02:52:59;99388.09;;;22.14;58.24
26859;BME280;14429;48.346;16.338;2023-06-10T02:55:24;99396.22;;;22.14;58.54
26859;BME280;14429;48.346;16.338;2023-06-10T02:57:50;99400.72;;;22.07;58.85
26859;BME280;14429;48.346;16.338;2023-06-10T03:00:16;99400.34;;;22.10;58.43
26859;BME280;14429;48.346;16.338;2023-06-10T03:02:41;99396.03;;;22.16;58.63
26859;BME280;14429;48.346;16.338;2023-06-10T03:05:08;99400.06;;;22.05;58.47
26859;BME280;14429;48.346;16.338;2023-06-10T03:07:34;99398.84;;;22.08;58.83
26859;BME280;14429;48.346;16.338;2023-06-10T03:09:59;99409.56;;;22.01;58.86
26859;BME280;14429;48.346;16.338;2023-06-10T03:12:25;99406.97;;;22.08;58.58
26859;BME280;14429;48.346;16.338;2023-06-10T03:14:50;99411.00;;;21.89;59.46
26859;BME280;14429;48.346;16.338;2023-06-10T03:17:15;99418.88;;;21.85;59.59
26859;BME280;14429;48.346;16.338;2023-06-10T03:19:41;99414.69;;;21.82;59.97
26859;BME280;14429;48.346;16.338;2023-06-10T03:22:09;99417.59;;;21.21;63.57
26859;BME280;14429;48.346;16.338;2023-06-10T03:24:35;99417.53;;;21.36;61.88
26859;BME280;14429;48.346;16.338;2023-06-10T03:27:00;99412.13;;;21.81;59.65
26859;BME280;14429;48.346;16.338;2023-06-10T03:29:26;99403.34;;;21.79;59.52
26859;BME280;14429;48.346;16.338;2023-06-10T03:31:51;99406.94;;;21.93;59.34
26859;BME280;14429;48.346;16.338;2023-06-10T03:34:16;99398.22;;;21.98;58.96
26859;BME280;14429;48.346;16.338;2023-06-10T03:36:42;99402.59;;;21.85;59.69
26859;BME280;14429;48.346;16.338;2023-06-10T03:39:09;99398.81;;;21.86;59.72
26859;BME280;14429;48.346;16.338;2023-06-10T03:41:34;99404.22;;;21.93;58.88
26859;BME280;14429;48.346;16.338;2023-06-10T03:43:59;99394.13;;;22.02;58.94
26859;BME280;14429;48.346;16.338;2023-06-10T03:46:25;99406.25;;;21.91;59.42
26859;BME280;14429;48.346;16.338;2023-06-10T03:48:50;99402.81;;;21.97;59.05
26859;BME280;14429;48.346;16.338;2023-06-10T03:51:16;99406.34;;;21.84;59.68
26859;BME280;14429;48.346;16.338;2023-06-10T03:53:41;99409.47;;;21.73;61.16
26859;BME280;14429;48.346;16.338;2023-06-10T03:56:08;99407.66;;;21.88;59.24
26859;BME280;14429;48.346;16.338;2023-06-10T03:58:33;99401.50;;;21.93;59.14
26859;BME280;14429;48.346;16.338;2023-06-10T04:00:59;99401.94;;;21.61;61.69
26859;BME280;14429;48.346;16.338;2023-06-10T04:03:24;99407.66;;;21.43;62.42
26859;BME280;14429;48.346;16.338;2023-06-10T04:05:49;99406.09;;;21.71;60.16
26859;BME280;14429;48.346;16.338;2023-06-10T04:08:15;99408.75;;;21.79;59.60
26859;BME280;14429;48.346;16.338;2023-06-10T04:10:40;99415.44;;;21.90;59.30
26859;BME280;14429;48.346;16.338;2023-06-10T04:13:07;99403.53;;;21.91;58.76
26859;BME280;14429;48.346;16.338;2023-06-10T04:15:32;99411.88;;;21.90;59.19
26859;BME280;14429;48.346;16.338;2023-06-10T04:17:58;99418.66;;;21.94;58.69
26859;BME280;14429;48.346;16.338;2023-06-10T04:20:23;99418.44;;;21.95;58.73
26859;BME280;14429;48.346;16.338;2023-06-10T04:22:49;99416.41;;;21.97;58.68
26859;BME280;14429;48.346;16.338;2023-06-10T04:25:14;99410.19;;;21.89;59.36
26859;BME280;14429;48.346;16.338;2023-06-10T04:27:40;99414.06;;;21.94;59.18
26859;BME280;14429;48.346;16.338;2023-06-10T04:30:07;99416.59;;;21.74;61.90
26859;BME280;14429;48.346;16.338;2023-06-10T04:32:33;99417.13;;;21.69;60.56
26859;BME280;14429;48.346;16.338;2023-06-10T04:34:59;99422.81;;;21.82;59.13
26859;BME280;14429;48.346;16.338;2023-06-10T04:37:25;99418.03;;;21.84;60.18
26859;BME280;14429;48.346;16.338;2023-06-10T04:39:50;99416.44;;;21.89;58.95
26859;BME280;14429;48.346;16.338;2023-06-10T04:42:16;99419.16;;;21.89;59.54
26859;BME280;14429;48.346;16.338;2023-06-10T04:44:41;99419.00;;;21.91;58.79
26859;BME280;14429;48.346;16.338;2023-06-10T04:47:08;99411.13;;;21.96;58.84
26859;BME280;14429;48.346;16.338;2023-06-10T04:49:33;99410.97;;;21.97;58.78
26859;BME280;14429;48.346;16.338;2023-06-10T04:51:59;99418.16;;;21.90;60.13
26859;BME280;14429;48.346;16.338;2023-06-10T04:54:24;99411.81;;;21.98;58.54
26859;BME280;14429;48.346;16.338;2023-06-10T04:56:49;99418.16;;;21.90;59.42
26859;BME280;14429;48.346;16.338;2023-06-10T04:59:15;99423.59;;;21.90;59.36
26859;BME280;14429;48.346;16.338;2023-06-10T05:01:40;99428.19;;;21.90;59.13
26859;BME280;14429;48.346;16.338;2023-06-10T05:04:07;99428.06;;;21.84;61.05
26859;BME280;14429;48.346;16.338;2023-06-10T05:06:32;99423.94;;;21.88;59.14
26859;BME280;14429;48.346;16.338;2023-06-10T05:08:58;99428.34;;;21.88;59.03
26859;BME280;14429;48.346;16.338;2023-06-10T05:11:23;99431.91;;;21.89;59.38
26859;BME280;14429;48.346;16.338;2023-06-10T05:13:48;99428.06;;;21.84;59.86
26859;BME280;14429;48.346;16.338;2023-06-10T05:16:14;99432.75;;;21.89;59.91
26859;BME280;14429;48.346;16.338;2023-06-10T05:18:39;99430.50;;;21.79;60.50
26859;BME280;14429;48.346;16.338;2023-06-10T05:21:06;99439.88;;;21.90;58.71
26859;BME280;14429;48.346;16.338;2023-06-10T05:23:31;99441.22;;;21.94;58.50
26859;BME280;14429;48.346;16.338;2023-06-10T05:25:57;99432.16;;;21.80;61.28
26859;BME280;14429;48.346;16.338;2023-06-10T05:28:22;99431.19;;;21.73;60.95
26859;BME280;14429;48.346;16.338;2023-06-10T05:30:48;99436.84;;;21.86;58.88
26859;BME280;14429;48.346;16.338;2023-06-10T05:33:13;99434.25;;;21.92;58.62
26859;BME280;14429;48.346;16.338;2023-06-10T05:35:38;99429.88;;;21.91;58.60
26859;BME280;14429;48.346;16.338;2023-06-10T05:38:05;99439.69;;;21.92;58.67
26859;BME280;14429;48.346;16.338;2023-06-10T05:40:31;99443.94;;;21.94;58.69
26859;BME280;14429;48.346;16.338;2023-06-10T05:42:56;99440.44;;;21.86;60.02
26859;BME280;14429;48.346;16.338;2023-06-10T05:45:21;99439.88;;;21.90;59.98
26859;BME280;14429;48.346;16.338;2023-06-10T05:47:47;99438.84;;;21.91;58.73
26859;BME280;14429;48.346;16.338;2023-06-10T05:50:12;99435.28;;;21.91;59.03
26859;BME280;14429;48.346;16.338;2023-06-10T05:52:38;99437.81;;;21.92;58.65
26859;BME280;14429;48.346;16.338;2023-06-10T05:55:05;99441.84;;;21.96;58.71
26859;BME280;14429;48.346;16.338;2023-06-10T05:57:30;99441.09;;;21.88;61.50
26859;BME280;14429;48.346;16.338;2023-06-10T05:59:56;99445.06;;;21.56;64.45
26859;BME280;14429;48.346;16.338;2023-06-10T06:02:21;99441.38;;;21.71;60.66
26859;BME280;14429;48.346;16.338;2023-06-10T06:04:47;99448.59;;;21.86;59.17
26859;BME280;14429;48.346;16.338;2023-06-10T06:07:12;99447.50;;;21.73;62.77
26859;BME280;14429;48.346;16.338;2023-06-10T06:09:38;99454.88;;;21.87;59.11
26859;BME280;14429;48.346;16.338;2023-06-10T06:12:06;99458.22;;;21.88;58.93
26859;BME280;14429;48.346;16.338;2023-06-10T06:14:31;99449.44;;;21.87;58.87
26859;BME280;14429;48.346;16.338;2023-06-10T06:16:57;99449.59;;;21.85;59.10
26859;BME280;14429;48.346;16.338;2023-06-10T06:19:22;99450.28;;;21.87;58.56
26859;BME280;14429;48.346;16.338;2023-06-10T06:21:48;99445.19;;;21.84;58.69
26859;BME280;14429;48.346;16.338;2023-06-10T06:24:14;99442.28;;;21.86;58.85
26859;BME280;14429;48.346;16.338;2023-06-10T06:26:39;99451.94;;;21.88;58.90
26859;BME280;14429;48.346;16.338;2023-06-10T06:29:06;99447.34;;;21.88;58.83
26859;BME280;14429;48.346;16.338;2023-06-10T06:31:31;99455.22;;;21.84;59.22
26859;BME280;14429;48.346;16.338;2023-06-10T06:33:57;99451.09;;;21.88;58.82
26859;BME280;14429;48.346;16.338;2023-06-10T06:36:22;99445.31;;;21.90;58.56
26859;BME280;14429;48.346;16.338;2023-06-10T06:38:47;99445.31;;;21.90;58.70
26859;BME280;14429;48.346;16.338;2023-06-10T06:41:13;99450.75;;;21.90;58.77
26859;BME280;14429;48.346;16.338;2023-06-10T06:43:38;99452.44;;;21.91;58.50
26859;BME280;14429;48.346;16.338;2023-06-10T06:46:05;99453.47;;;21.90;58.49
26859;BME280;14429;48.346;16.338;2023-06-10T06:48:30;99447.00;;;21.91;58.59
26859;BME280;14429;48.346;16.338;2023-06-10T06:50:56;99453.28;;;21.92;58.58
26859;BME280;14429;48.346;16.338;2023-06-10T06:53:21;99449.03;;;21.89;58.88
26859;BME280;14429;48.346;16.338;2023-06-10T06:55:47;99444.00;;;21.87;59.05
26859;BME280;14429;48.346;16.338;2023-06-10T06:58:12;99450.28;;;21.87;60.00
26859;BME280;14429;48.346;16.338;2023-06-10T07:00:38;99450.44;;;21.86;61.24
26859;BME280;14429;48.346;16.338;2023-06-10T07:03:04;99458.22;;;21.88;58.89
26859;BME280;14429;48.346;16.338;2023-06-10T07:05:30;99454.47;;;21.89;59.06
26859;BME280;14429;48.346;16.338;2023-06-10T07:07:55;99454.13;;;21.92;58.51
26859;BME280;14429;48.346;16.338;2023-06-10T07:10:21;99452.78;;;21.88;58.46
26859;BME280;14429;48.346;16.338;2023-06-10T07:12:46;99455.16;;;21.91;58.39
26859;BME280;14429;48.346;16.338;2023-06-10T07:15:11;99454.78;;;21.94;58.17
26859;BME280;14429;48.346;16.338;2023-06-10T07:17:37;99454.97;;;21.93;58.52
26859;BME280;14429;48.346;16.338;2023-06-10T07:20:04;99454.97;;;21.93;58.38
26859;BME280;14429;48.346;16.338;2023-06-10T07:22:30;99461.44;;;21.92;58.57
26859;BME280;14429;48.346;16.338;2023-06-10T07:24:55;99457.56;;;21.87;58.49
26859;BME280;14429;48.346;16.338;2023-06-10T07:27:20;99459.63;;;21.85;58.47
26859;BME280;14429;48.346;16.338;2023-06-10T07:29:46;99456.06;;;21.84;58.73
26859;BME280;14429;48.346;16.338;2023-06-10T07:32:11;99456.91;;;21.85;59.00
26859;BME280;14429;48.346;16.338;2023-06-10T07:34:37;99464.19;;;21.84;59.34
26859;BME280;14429;48.346;16.338;2023-06-10T07:37:04;99460.28;;;21.87;58.82
26859;BME280;14429;48.346;16.338;2023-06-10T07:39:29;99464.19;;;21.84;59.72
26859;BME280;14429;48.346;16.338;2023-06-10T07:41:55;99466.72;;;21.86;59.68
26859;BME280;14429;48.346;16.338;2023-06-10T07:44:20;99468.97;;;21.60;63.01
26859;BME280;14429;48.346;16.338;2023-06-10T07:46:46;99474.03;;;21.63;63.24
26859;BME280;14429;48.346;16.338;2023-06-10T07:49:11;99471.00;;;21.58;62.39
26859;BME280;14429;48.346;16.338;2023-06-10T07:51:36;99476.09;;;21.61;61.91
26859;BME280;14429;48.346;16.338;2023-06-10T07:54:03;99471.13;;;21.42;65.77
26859;BME280;14429;48.346;16.338;2023-06-10T07:56:29;99475.28;;;21.15;67.46
26859;BME280;14429;48.346;16.338;2023-06-10T07:58:54;99479.13;;;20.90;68.69
26859;BME280;14429;48.346;16.338;2023-06-10T08:01:20;99474.19;;;20.94;67.24
26859;BME280;14429;48.346;16.338;2023-06-10T08:03:45;99481.38;;;20.79;69.28
26859;BME280;14429;48.346;16.338;2023-06-10T08:06:10;99483.41;;;21.15;63.20
26859;BME280;14429;48.346;16.338;2023-06-10T08:08:36;99482.03;;;21.27;62.58
26859;BME280;14429;48.346;16.338;2023-06-10T08:11:03;99484.63;;;21.50;60.74
26859;BME280;14429;48.346;16.338;2023-06-10T08:13:28;99483.94;;;21.48;62.00
26859;BME280;14429;48.346;16.338;2023-06-10T08:15:53;99492.63;;;21.44;63.35
26859;BME280;14429;48.346;16.338;2023-06-10T08:18:19;99484.28;;;21.53;60.93
26859;BME280;14429;48.346;16.338;2023-06-10T08:20:44;99486.09;;;21.61;60.60
26859;BME280;14429;48.346;16.338;2023-06-10T08:23:10;99478.59;;;21.62;64.26
26859;BME280;14429;48.346;16.338;2023-06-10T08:25:35;99481.50;;;21.61;63.23
26859;BME280;14429;48.346;16.338;2023-06-10T08:28:02;99478.38;;;21.72;59.89
26859;BME280;14429;48.346;16.338;2023-06-10T08:30:27;99476.31;;;21.74;59.47
26859;BME280;14429;48.346;16.338;2023-06-10T08:32:53;99477.34;;;21.73;59.11
26859;BME280;14429;48.346;16.338;2023-06-10T08:35:18;99471.63;;;21.68;65.35
26859;BME280;14429;48.346;16.338;2023-06-10T08:37:44;99479.22;;;21.72;59.72
26859;BME280;14429;48.346;16.338;2023-06-10T08:40:09;99480.38;;;21.78;59.09
26859;BME280;14429;48.346;16.338;2023-06-10T08:42:39;99473.94;;;21.79;59.28
26859;BME280;14429;48.346;16.338;2023-06-10T08:45:12;99476.16;;;21.75;63.94
26859;BME280;14429;48.346;16.338;2023-06-10T08:47:44;99482.16;;;21.63;63.33
26859;BME280;14429;48.346;16.338;2023-06-10T08:50:10;99483.81;;;21.72;60.21
26859;BME280;14429;48.346;16.338;2023-06-10T08:52:36;99485.50;;;21.73;61.14
26859;BME280;14429;48.346;16.338;2023-06-10T08:55:04;99484.41;;;21.82;61.93
26859;BME280;14429;48.346;16.338;2023-06-10T08:57:30;99488.66;;;21.84;58.97
26859;BME280;14429;48.346;16.338;2023-06-10T08:59:56;99485.69;;;21.71;65.14
26859;BME280;14429;48.346;16.338;2023-06-10T09:02:24;99487.59;;;21.63;66.47
26859;BME280;14429;48.346;16.338;2023-06-10T09:04:50;99484.03;;;21.62;63.91
26859;BME280;14429;48.346;16.338;2023-06-10T09:07:16;99480.56;;;21.76;59.77
26859;BME280;14429;48.346;16.338;2023-06-10T09:09:42;99483.22;;;21.84;59.30
26859;BME280;14429;48.346;16.338;2023-06-10T09:12:08;99479.13;;;21.88;59.11
26859;BME280;14429;48.346;16.338;2023-06-10T09:14:34;99471.25;;;21.93;63.37
26859;BME280;14429;48.346;16.338;2023-06-10T09:16:59;99473.81;;;21.94;59.16
26859;BME280;14429;48.346;16.338;2023-06-10T09:19:27;99474.66;;;21.95;61.49
26859;BME280;14429;48.346;16.338;2023-06-10T09:21:53;99475.00;;;21.92;58.79
26859;BME280;14429;48.346;16.338;2023-06-10T09:24:20;99472.78;;;21.95;59.24
26859;BME280;14429;48.346;16.338;2023-06-10T09:26:47;99468.84;;;21.98;58.23
26859;BME280;14429;48.346;16.338;2023-06-10T09:29:12;99471.53;;;22.06;62.18
26859;BME280;14429;48.346;16.338;2023-06-10T09:31:38;99467.31;;;22.03;58.87
26859;BME280;14429;48.346;16.338;2023-06-10T09:34:08;99474.41;;;22.04;58.22
26859;BME280;14429;48.346;16.338;2023-06-10T09:36:35;99478.66;;;22.07;59.12
26859;BME280;14429;48.346;16.338;2023-06-10T09:39:01;99474.78;;;22.01;63.07
26859;BME280;14429;48.346;16.338;2023-06-10T09:41:32;99473.72;;;22.10;62.65
26859;BME280;14429;48.346;16.338;2023-06-10T09:43:57;99471.03;;;22.02;58.40
26859;BME280;14429;48.346;16.338;2023-06-10T09:46:23;99474.59;;;22.25;65.67
26859;BME280;14429;48.346;16.338;2023-06-10T09:48:48;99474.19;;;22.14;59.13
26859;BME280;14429;48.346;16.338;2023-06-10T09:51:14;99472.31;;;22.14;59.20
26859;BME280;14429;48.346;16.338;2023-06-10T09:53:41;99472.59;;;22.19;59.32
26859;BME280;14429;48.346;16.338;2023-06-10T09:56:07;99472.91;;;22.02;58.28
26859;BME280;14429;48.346;16.338;2023-06-10T09:58:36;99473.81;;;21.94;58.92
26859;BME280;14429;48.346;16.338;2023-06-10T10:01:05;99471.03;;;22.02;58.34
26859;BME280;14429;48.346;16.338;2023-06-10T10:03:30;99473.06;;;22.22;62.65
26859;BME280;14429;48.346;16.338;2023-06-10T10:05:58;99465.84;;;22.15;58.85
26859;BME280;14429;48.346;16.338;2023-06-10T10:08:23;99471.59;;;22.20;59.61
26859;BME280;14429;48.346;16.338;2023-06-10T10:10:50;99468.88;;;22.34;63.63
26859;BME280;14429;48.346;16.338;2023-06-10T10:13:16;99464.22;;;22.06;58.31
26859;BME280;14429;48.346;16.338;2023-06-10T10:15:43;99457.78;;;21.99;58.44
26859;BME280;14429;48.346;16.338;2023-06-10T10:18:11;99461.44;;;21.92;58.83
26859;BME280;14429;48.346;16.338;2023-06-10T10:20:45;99451.25;;;21.94;58.67
26859;BME280;14429;48.346;16.338;2023-06-10T10:23:14;99451.03;;;21.95;58.90
26859;BME280;14429;48.346;16.338;2023-06-10T10:25:42;99455.25;;;22.06;59.88
26859;BME280;14429;48.346;16.338;2023-06-10T10:28:10;99449.53;;;22.15;59.55
26859;BME280;14429;48.346;16.338;2023-06-10T10:30:39;99448.91;;;22.13;60.34
26859;BME280;14429;48.346;16.338;2023-06-10T10:33:09;99446.38;;;22.26;62.83
26859;BME280;14429;48.346;16.338;2023-06-10T10:35:37;99439.50;;;22.16;59.74
26859;BME280;14429;48.346;16.338;2023-06-10T10:38:04;99448.22;;;22.11;60.09
26859;BME280;14429;48.346;16.338;2023-06-10T10:40:30;99444.31;;;22.14;59.82
26859;BME280;14429;48.346;16.338;2023-06-10T10:42:56;99440.84;;;21.97;59.87
26859;BME280;14429;48.346;16.338;2023-06-10T10:45:27;99440.38;;;21.94;59.66
26859;BME280;14429;48.346;16.338;2023-06-10T10:47:53;99442.19;;;22.01;59.86
26859;BME280;14429;48.346;16.338;2023-06-10T10:50:20;99434.19;;;22.22;60.60
26859;BME280;14429;48.346;16.338;2023-06-10T10:52:54;99441.97;;;22.25;60.01
26859;BME280;14429;48.346;16.338;2023-06-10T10:55:20;99430.38;;;22.45;62.00
26859;BME280;14429;48.346;16.338;2023-06-10T10:57:53;99426.34;;;22.27;58.91
26859;BME280;14429;48.346;16.338;2023-06-10T11:00:27;99426.47;;;22.11;59.44
26859;BME280;14429;48.346;16.338;2023-06-10T11:02:52;99429.38;;;22.10;59.50
26859;BME280;14429;48.346;16.338;2023-06-10T11:05:18;99426.16;;;22.28;64.48
26859;BME280;14429;48.346;16.338;2023-06-10T11:07:56;99432.25;;;22.44;60.87
26859;BME280;14429;48.346;16.338;2023-06-10T11:10:29;99426.81;;;22.44;59.16
26859;BME280;14429;48.346;16.338;2023-06-10T11:12:56;99428.13;;;22.34;59.91
26859;BME280;14429;48.346;16.338;2023-06-10T11:15:23;99424.31;;;22.57;65.35
26859;BME280;14429;48.346;16.338;2023-06-10T11:20:54;99412.59;;;22.57;59.25
26859;BME280;14429;48.346;16.338;2023-06-10T11:23:40;99405.53;;;22.34;58.91
26859;BME280;14429;48.346;16.338;2023-06-10T11:26:17;99404.16;;;22.52;64.89
26859;BME280;14429;48.346;16.338;2023-06-10T11:31:48;99397.00;;;22.37;58.62
26859;BME280;14429;48.346;16.338;2023-06-10T11:34:15;99394.78;;;22.54;59.59
26859;BME280;14429;48.346;16.338;2023-06-10T11:36:47;99398.88;;;23.22;65.28
26859;BME280;14429;48.346;16.338;2023-06-10T11:39:13;99392.34;;;22.59;58.57
26859;BME280;14429;48.346;16.338;2023-06-10T11:41:39;99389.06;;;22.78;58.95
26859;BME280;14429;48.346;16.338;2023-06-10T11:44:08;99381.59;;;23.15;63.60
26859;BME280;14429;48.346;16.338;2023-06-10T11:46:33;99377.53;;;22.90;60.53
26859;BME280;14429;48.346;16.338;2023-06-10T11:49:00;99373.09;;;22.75;57.55
26859;BME280;14429;48.346;16.338;2023-06-10T11:51:26;99373.16;;;23.45;62.43
26859;BME280;14429;48.346;16.338;2023-06-10T11:53:54;99365.94;;;23.37;59.11
26859;BME280;14429;48.346;16.338;2023-06-10T11:56:19;99361.91;;;23.13;58.15
26859;BME280;14429;48.346;16.338;2023-06-10T11:58:45;99362.44;;;23.57;62.50
26859;BME280;14429;48.346;16.338;2023-06-10T12:01:19;99362.88;;;23.81;62.25
26859;BME280;14429;48.346;16.338;2023-06-10T12:03:45;99363.97;;;23.87;60.70
26859;BME280;14429;48.346;16.338;2023-06-10T12:06:10;99365.78;;;23.39;55.66
26859;BME280;14429;48.346;16.338;2023-06-10T12:08:41;99362.38;;;23.51;59.97
26859;BME280;14429;48.346;16.338;2023-06-10T12:11:08;99374.56;;;23.55;59.94
26859;BME280;14429;48.346;16.338;2023-06-10T12:13:33;99365.50;;;23.34;60.01
26859;BME280;14429;48.346;16.338;2023-06-10T12:16:06;99372.69;;;23.41;61.57
26859;BME280;14429;48.346;16.338;2023-06-10T12:18:31;99379.56;;;23.52;62.98
26859;BME280;14429;48.346;16.338;2023-06-10T12:20:57;99373.53;;;23.42;63.56
26859;BME280;14429;48.346;16.338;2023-06-10T12:23:22;99388.44;;;23.25;61.10
26859;BME280;14429;48.346;16.338;2023-06-10T12:25:51;99382.91;;;23.19;68.01
26859;BME280;14429;48.346;16.338;2023-06-10T12:28:20;99391.31;;;22.89;70.66
26859;BME280;14429;48.346;16.338;2023-06-10T12:30:46;99394.13;;;22.67;74.16
26859;BME280;14429;48.346;16.338;2023-06-10T12:33:16;99397.03;;;22.51;77.80
26859;BME280;14429;48.346;16.338;2023-06-10T12:35:47;99389.06;;;22.49;77.27
26859;BME280;14429;48.346;16.338;2023-06-10T12:38:12;99379.28;;;22.41;76.51
26859;BME280;14429;48.346;16.338;2023-06-10T12:40:39;99388.97;;;22.43;77.30
26859;BME280;14429;48.346;16.338;2023-06-10T12:43:04;99384.72;;;22.41;76.60
26859;BME280;14429;48.346;16.338;2023-06-10T12:45:32;99377.63;;;22.40;74.84
26859;BME280;14429;48.346;16.338;2023-06-10T12:48:05;99379.03;;;22.50;71.32
26859;BME280;14429;48.346;16.338;2023-06-10T12:50:30;99368.44;;;22.41;61.13
26859;BME280;14429;48.346;16.338;2023-06-10T12:52:55;99371.22;;;22.90;74.09